Time;durP1;ratioP1;P1;durP2;ratioP2;P2;SDS_P1;SDS_P2;PMS_P1;PMS_P2;Temp;Humidity;BMP_temperature;BMP_pressure;BME280_temperature;BME280_humidity;BME280_pressure;Samples;Min_cycle;Max_cycle;Signal;HPM_P1;HPM_P2
2021/06/21 00:01:13;;;;;;;13.57;7.57;;;614.80;2022.40;;;;;;5083440;28;20077;-65
2021/06/21 00:03:39;;;;;;;8.60;6.45;;;614.80;2022.40;;;;;;5082400;28;20385;-67
2021/06/21 00:06:05;;;;;;;10.48;6.78;;;614.80;2022.40;;;;;;5082864;28;20381;-67
2021/06/21 00:08:30;;;;;;;10.32;6.53;;;614.80;2022.40;;;;;;5091532;28;20028;-67
2021/06/21 00:10:56;;;;;;;9.07;7.10;;;614.90;2022.40;;;;;;5079800;28;20082;-64
2021/06/21 00:13:22;;;;;;;13.25;7.60;;;614.80;2022.40;;;;;;5081427;28;20425;-67
2021/06/21 00:15:47;;;;;;;10.32;7.32;;;614.80;2022.40;;;;;;5082533;28;20120;-67
2021/06/21 00:18:14;;;;;;;12.27;7.55;;;614.80;2022.40;;;;;;5083096;28;20051;-66
2021/06/21 00:20:41;;;;;;;10.02;7.65;;;614.80;2022.40;;;;;;5063380;28;20052;-67
2021/06/21 00:23:06;;;;;;;11.60;8.32;;;614.70;2022.40;;;;;;5083094;28;20047;-67
2021/06/21 00:25:32;;;;;;;12.70;8.52;;;614.80;2022.40;;;;;;5083996;28;20470;-67
2021/06/21 00:27:58;;;;;;;13.75;8.00;;;614.70;2048.00;;;;;;5082443;28;20374;-67
2021/06/21 00:30:24;;;;;;;10.07;8.00;;;614.70;2073.60;;;;;;5078516;28;20482;-67
2021/06/21 00:32:50;;;;;;;9.63;7.90;;;614.60;2073.60;;;;;;5073220;28;20024;-68
2021/06/21 00:35:18;;;;;;;13.18;8.05;;;614.60;2073.60;;;;;;5073319;28;20094;-64
2021/06/21 00:37:44;;;;;;;10.40;8.00;;;614.60;2099.20;;;;;;5073646;28;20086;-68
2021/06/21 00:40:11;;;;;;;8.98;7.32;;;614.60;2099.20;;;;;;5073620;28;20020;-68
2021/06/21 00:42:40;;;;;;;12.73;8.43;;;614.50;2073.60;;;;;;5073597;28;20052;-68
2021/06/21 00:45:07;;;;;;;12.43;7.82;;;614.50;2099.20;;;;;;5073210;28;20133;-68
2021/06/21 00:47:32;;;;;;;12.43;7.68;;;614.40;2099.20;;;;;;5073509;28;20031;-68
2021/06/21 00:49:58;;;;;;;10.43;7.70;;;614.40;2099.20;;;;;;5073209;28;20028;-68
2021/06/21 00:52:24;;;;;;;10.77;7.93;;;614.40;2099.20;;;;;;5073533;28;20382;-67
2021/06/21 00:54:59;;;;;;;12.50;7.60;;;589.70;2099.20;;;;;;5073277;28;20119;-68
2021/06/21 00:57:30;;;;;;;10.88;8.32;;;589.50;2124.80;;;;;;5073304;28;20530;-66
2021/06/21 00:59:59;;;;;;;10.98;8.40;;;589.50;2150.40;;;;;;5073325;28;20036;-68
2021/06/21 01:02:26;;;;;;;12.40;9.00;;;589.30;2176.00;;;;;;5076470;28;20366;-67
2021/06/21 01:04:52;;;;;;;13.73;9.38;;;589.20;2201.60;;;;;;5076937;28;20020;-67
2021/06/21 01:07:18;;;;;;;12.40;9.30;;;589.20;2227.20;;;;;;5077211;28;20098;-67
2021/06/21 01:09:45;;;;;;;13.68;9.40;;;589.20;2227.20;;;;;;5076896;28;20029;-67
2021/06/21 01:12:31;;;;;;;13.40;8.57;;;589.20;2227.20;;;;;;5076896;28;20024;-67
2021/06/21 01:15:03;;;;;;;11.40;8.77;;;589.10;2227.20;;;;;;5076885;28;20351;-67
2021/06/21 01:17:59;;;;;;;14.00;8.93;;;589.10;2227.20;;;;;;5077064;28;20437;-68
2021/06/21 01:20:43;;;;;;;10.23;8.50;;;589.10;2227.20;;;;;;5071748;28;20123;-68
2021/06/21 01:23:11;;;;;;;13.25;8.70;;;589.20;2227.20;;;;;;5076979;28;20035;-67
2021/06/21 01:25:43;;;;;;;13.23;8.13;;;589.10;2227.20;;;;;;5076543;28;20025;-67
2021/06/21 01:28:47;;;;;;;11.20;8.38;;;589.10;2227.20;;;;;;5076651;28;20025;-67
2021/06/21 01:31:47;;;;;;;15.50;8.40;;;589.10;2227.20;;;;;;5076651;28;20021;-68
2021/06/21 01:34:15;;;;;;;12.02;8.50;;;589.10;2252.80;;;;;;4959300;28;20046;-68
2021/06/21 01:36:44;;;;;;;13.57;8.80;;;588.90;2252.80;;;;;;4975865;28;20164;-67
2021/06/21 01:39:10;;;;;;;12.02;8.70;;;564.00;2304.00;;;;;;4975765;28;20050;-67
2021/06/21 01:41:39;;;;;;;16.80;9.48;;;563.90;2304.00;;;;;;4975277;28;20023;-67
2021/06/21 01:44:07;;;;;;;12.93;9.30;;;563.70;2304.00;;;;;;4975463;28;20065;-67
2021/06/21 01:46:36;;;;;;;15.70;9.48;;;563.80;2304.00;;;;;;4975365;28;20030;-67
2021/06/21 01:49:08;;;;;;;14.10;8.85;;;563.90;2304.00;;;;;;4975355;28;20470;-67
2021/06/21 01:51:36;;;;;;;11.13;9.02;;;563.90;2304.00;;;;;;4975525;28;20035;-66
2021/06/21 01:54:03;;;;;;;15.30;8.50;;;563.90;2329.60;;;;;;4975067;28;20043;-66
2021/06/21 01:56:33;;;;;;;13.07;8.55;;;564.00;2329.60;;;;;;4975457;28;20534;-67
2021/06/21 01:59:03;;;;;;;14.98;8.52;;;563.90;2329.60;;;;;;4975461;28;20042;-66
2021/06/21 02:01:30;;;;;;;10.10;8.73;;;564.00;2329.60;;;;;;4975114;28;20082;-67
2021/06/21 02:03:58;;;;;;;11.70;8.70;;;564.00;2329.60;;;;;;4975072;28;20062;-67
2021/06/21 02:06:27;;;;;;;15.25;8.60;;;564.00;2329.60;;;;;;4977515;28;20054;-67
2021/06/21 02:08:55;;;;;;;12.15;8.65;;;564.00;2329.60;;;;;;4985234;28;20025;-66
2021/06/21 02:11:24;;;;;;;10.25;8.70;;;564.10;2329.60;;;;;;5036842;28;20040;-66
2021/06/21 02:13:51;;;;;;;14.05;9.20;;;564.10;2355.20;;;;;;5062837;28;20487;-67
2021/06/21 02:16:17;;;;;;;15.20;9.02;;;564.10;2355.20;;;;;;5064682;28;20416;-66
2021/06/21 02:18:46;;;;;;;12.27;9.10;;;564.00;2355.20;;;;;;5059388;28;20364;-67
2021/06/21 02:21:12;;;;;;;16.88;9.40;;;564.10;2355.20;;;;;;5065925;28;20482;-67
2021/06/21 02:23:39;;;;;;;13.23;9.00;;;564.10;2329.60;;;;;;5064258;28;20052;-66
2021/06/21 02:26:06;;;;;;;12.75;8.93;;;564.00;2355.20;;;;;;5064910;28;20021;-63
2021/06/21 02:28:34;;;;;;;11.45;8.30;;;564.00;2355.20;;;;;;5065863;28;20021;-66
2021/06/21 02:31:03;;;;;;;11.48;8.73;;;564.10;2329.60;;;;;;5064365;28;20017;-65
2021/06/21 02:33:29;;;;;;;13.68;8.90;;;564.10;2329.60;;;;;;5069436;28;20111;-67
2021/06/21 02:35:55;;;;;;;12.20;8.35;;;564.10;2329.60;;;;;;5071348;28;20545;-67
2021/06/21 02:38:21;;;;;;;14.90;8.57;;;588.80;2329.60;;;;;;5063534;28;20116;-67
2021/06/21 02:40:47;;;;;;;11.63;8.15;;;588.80;2304.00;;;;;;5063269;28;20021;-66
2021/06/21 02:43:14;;;;;;;11.68;8.25;;;588.90;2304.00;;;;;;5065017;28;20017;-67
2021/06/21 02:45:39;;;;;;;11.73;8.77;;;588.90;2304.00;;;;;;5080908;28;20040;-67
2021/06/21 02:48:07;;;;;;;12.15;9.10;;;588.90;2304.00;;;;;;5084421;28;20065;-66
2021/06/21 02:50:35;;;;;;;14.23;9.10;;;589.00;2278.40;;;;;;5085677;28;20031;-67
2021/06/21 02:53:39;;;;;;;10.88;9.00;;;589.00;2278.40;;;;;;5084442;28;20107;-67
2021/06/21 02:56:07;;;;;;;12.30;8.88;;;589.00;2278.40;;;;;;4993247;28;20034;-65
2021/06/21 02:58:39;;;;;;;12.05;8.55;;;589.10;2278.40;;;;;;4992817;28;20034;-67
2021/06/21 03:01:06;;;;;;;11.60;7.68;;;589.20;2278.40;;;;;;4993067;28;20034;-67
2021/06/21 03:03:38;;;;;;;12.05;8.10;;;589.20;2278.40;;;;;;4993282;28;20177;-67
2021/06/21 03:06:05;;;;;;;10.35;8.48;;;589.30;2252.80;;;;;;4991329;28;20030;-66
2021/06/21 03:08:32;;;;;;;12.43;8.07;;;589.20;2252.80;;;;;;4991322;28;20080;-67
2021/06/21 03:10:58;;;;;;;10.18;8.27;;;589.20;2252.80;;;;;;4991258;28;20039;-63
2021/06/21 03:13:26;;;;;;;13.75;8.38;;;589.10;2252.80;;;;;;4991288;28;20026;-60
2021/06/21 03:15:53;;;;;;;14.13;8.52;;;589.20;2252.80;;;;;;4991371;28;20061;-68
2021/06/21 03:18:23;;;;;;;14.43;8.85;;;589.20;2252.80;;;;;;4993304;28;20027;-68
2021/06/21 03:20:54;;;;;;;13.18;8.30;;;589.30;2227.20;;;;;;4992853;28;20034;-67
2021/06/21 03:23:28;;;;;;;12.13;8.95;;;589.40;2227.20;;;;;;4976944;28;20160;-68
2021/06/21 03:25:57;;;;;;;10.88;8.32;;;589.50;2227.20;;;;;;4993245;28;20046;-68
2021/06/21 03:28:23;;;;;;;11.52;8.50;;;589.50;2227.20;;;;;;4993137;28;20031;-69
2021/06/21 03:30:59;;;;;;;13.15;8.68;;;589.60;2227.20;;;;;;5079006;28;20040;-69
2021/06/21 03:33:25;;;;;;;10.73;7.82;;;589.60;2201.60;;;;;;5094314;28;20614;-67
2021/06/21 03:35:51;;;;;;;10.30;8.25;;;589.60;2227.20;;;;;;5094241;28;20115;-68
2021/06/21 03:38:20;;;;;;;11.05;8.25;;;589.70;2201.60;;;;;;5094405;28;20085;-69
2021/06/21 03:40:47;;;;;;;11.20;8.10;;;614.40;2176.00;;;;;;5094685;28;20377;-68
2021/06/21 03:43:14;;;;;;;11.02;8.10;;;589.70;2201.60;;;;;;5094207;28;20535;-62
2021/06/21 03:45:40;;;;;;;11.27;8.68;;;614.40;2176.00;;;;;;5094313;28;20497;-65
2021/06/21 03:48:07;;;;;;;13.25;8.60;;;614.40;2176.00;;;;;;5094301;28;20066;-67
2021/06/21 03:50:33;;;;;;;13.20;8.00;;;614.40;2201.60;;;;;;5093905;28;20527;-66
2021/06/21 03:52:59;;;;;;;14.18;8.50;;;614.50;2227.20;;;;;;5094402;28;20024;-67
2021/06/21 03:55:25;;;;;;;11.57;8.15;;;589.70;2227.20;;;;;;5094116;28;20036;-67
2021/06/21 03:57:51;;;;;;;14.35;9.07;;;589.70;2227.20;;;;;;5093957;28;20032;-67
2021/06/21 04:00:20;;;;;;;12.77;8.80;;;589.70;2227.20;;;;;;5094070;28;20415;-66
2021/06/21 04:02:46;;;;;;;13.52;9.32;;;589.60;2227.20;;;;;;5093644;28;20031;-67
2021/06/21 04:05:12;;;;;;;14.02;9.15;;;589.70;2227.20;;;;;;5093357;28;20024;-65
2021/06/21 04:07:39;;;;;;;10.27;8.63;;;589.70;2227.20;;;;;;5094048;28;20377;-65
2021/06/21 04:10:07;;;;;;;11.40;8.50;;;614.40;2227.20;;;;;;5081807;28;20432;-67
2021/06/21 04:12:34;;;;;;;12.45;8.43;;;614.50;2201.60;;;;;;5081076;28;20024;-66
2021/06/21 04:15:00;;;;;;;11.60;8.48;;;614.60;2201.60;;;;;;5077904;28;20473;-64
2021/06/21 04:17:26;;;;;;;9.07;7.38;;;614.70;2176.00;;;;;;5078138;28;20169;-67
2021/06/21 04:19:52;;;;;;;9.57;7.55;;;614.80;2124.80;;;;;;5079422;28;20089;-67
2021/06/21 04:22:18;;;;;;;11.90;7.80;;;614.80;2150.40;;;;;;5079479;28;20046;-67
2021/06/21 04:24:43;;;;;;;10.55;7.78;;;614.90;2124.80;;;;;;5080643;28;20756;-65
2021/06/21 04:27:11;;;;;;;10.35;7.47;;;615.00;2150.40;;;;;;5079005;28;20027;-60
2021/06/21 04:29:37;;;;;;;11.60;7.85;;;615.10;2099.20;;;;;;5079447;28;20020;-64
2021/06/21 04:32:03;;;;;;;9.77;7.10;;;615.20;2124.80;;;;;;5080970;28;20028;-67
2021/06/21 04:34:29;;;;;;;11.02;7.43;;;615.30;2099.20;;;;;;5078846;28;20108;-67
2021/06/21 04:36:54;;;;;;;8.35;7.30;;;615.30;2073.60;;;;;;5081751;28;20106;-66
2021/06/21 04:39:20;;;;;;;9.57;7.40;;;615.30;2048.00;;;;;;5066970;28;20725;-63
2021/06/21 04:41:46;;;;;;;10.50;7.38;;;640.00;2048.00;;;;;;5082378;28;20036;-63
2021/06/21 04:44:12;;;;;;;14.00;7.72;;;640.00;2073.60;;;;;;5083820;28;20050;-68
2021/06/21 04:46:38;;;;;;;14.15;7.72;;;640.10;2073.60;;;;;;5084367;28;20026;-63
2021/06/21 04:49:05;;;;;;;11.68;7.18;;;640.30;2048.00;;;;;;5082556;28;20043;-62
2021/06/21 04:51:32;;;;;;;11.35;8.32;;;640.30;2048.00;;;;;;5083611;28;20024;-64
2021/06/21 04:53:58;;;;;;;12.93;8.20;;;640.40;2124.80;;;;;;5084017;28;20029;-63
2021/06/21 04:56:24;;;;;;;12.52;7.75;;;640.40;2124.80;;;;;;5082389;28;20025;-63
2021/06/21 04:58:50;;;;;;;10.27;7.65;;;640.40;2124.80;;;;;;5083875;28;20081;-68
2021/06/21 05:01:15;;;;;;;11.82;8.00;;;640.50;2124.80;;;;;;5083440;28;20025;-66
2021/06/21 05:03:41;;;;;;;10.70;7.45;;;640.50;2099.20;;;;;;5080555;28;20025;-67
2021/06/21 05:06:07;;;;;;;12.40;7.60;;;640.50;2073.60;;;;;;5080900;28;20024;-67
2021/06/21 05:08:33;;;;;;;10.93;6.82;;;640.60;2048.00;;;;;;5081447;28;20024;-67
2021/06/21 05:10:59;;;;;;;12.40;8.25;;;640.50;1996.80;;;;;;5084432;28;20028;-64
2021/06/21 05:13:25;;;;;;;11.80;7.07;;;640.50;1996.80;;;;;;5075587;28;20071;-68
2021/06/21 05:15:51;;;;;;;9.43;6.57;;;640.50;1971.20;;;;;;5076847;28;20040;-65
2021/06/21 05:18:17;;;;;;;9.90;6.53;;;640.50;1971.20;;;;;;5076846;28;20048;-67
2021/06/21 05:20:43;;;;;;;10.48;6.63;;;640.50;1971.20;;;;;;5076001;28;20446;-65
2021/06/21 05:23:09;;;;;;;12.32;7.00;;;640.40;1996.80;;;;;;5076625;28;20021;-67
2021/06/21 05:25:35;;;;;;;18.88;7.50;;;640.50;1971.20;;;;;;5076749;28;20024;-66
2021/06/21 05:28:02;;;;;;;12.48;6.88;;;640.60;1971.20;;;;;;5076790;28;20032;-68
2021/06/21 05:30:27;;;;;;;9.65;6.60;;;640.70;1945.60;;;;;;5076499;28;20036;-68
2021/06/21 05:32:53;;;;;;;8.40;6.10;;;640.70;1945.60;;;;;;5076492;28;20085;-67
2021/06/21 05:35:20;;;;;;;9.35;6.72;;;640.70;1945.60;;;;;;5075674;28;20064;-67
2021/06/21 05:37:47;;;;;;;11.57;7.00;;;640.90;1945.60;;;;;;5058054;28;20051;-65
2021/06/21 05:40:14;;;;;;;7.93;6.72;;;665.60;1996.80;;;;;;5076279;28;20035;-67
2021/06/21 05:42:40;;;;;;;9.70;6.75;;;665.60;1996.80;;;;;;5076511;28;20020;-68
2021/06/21 05:45:06;;;;;;;11.88;6.90;;;665.70;1996.80;;;;;;5076550;28;20055;-68
2021/06/21 05:47:32;;;;;;;10.18;6.75;;;665.90;1996.80;;;;;;5081027;28;20020;-68
2021/06/21 05:49:58;;;;;;;10.63;6.97;;;665.90;1996.80;;;;;;5085211;28;20090;-67
2021/06/21 05:52:24;;;;;;;8.48;6.32;;;666.10;1996.80;;;;;;5084111;28;20032;-67
2021/06/21 05:54:49;;;;;;;9.73;6.70;;;666.10;1971.20;;;;;;5080821;28;20041;-68
2021/06/21 05:57:15;;;;;;;8.18;6.50;;;666.10;1945.60;;;;;;5062948;28;20021;-68
2021/06/21 05:59:41;;;;;;;8.85;6.47;;;666.30;1945.60;;;;;;5085519;28;20028;-68
2021/06/21 06:02:07;;;;;;;8.27;6.45;;;666.30;1945.60;;;;;;5084582;28;20019;-69
2021/06/21 06:04:35;;;;;;;11.25;6.40;;;666.40;1945.60;;;;;;5084239;28;20024;-68
2021/06/21 06:07:01;;;;;;;6.55;5.85;;;691.20;1894.40;;;;;;5083698;28;20119;-69
2021/06/21 06:09:26;;;;;;;8.52;5.72;;;691.30;1894.40;;;;;;5085289;28;20111;-68
2021/06/21 06:11:52;;;;;;;6.55;5.40;;;691.50;1868.80;;;;;;5094790;28;20020;-66
2021/06/21 06:14:18;;;;;;;7.13;5.80;;;691.50;1868.80;;;;;;5083005;28;20028;-66
2021/06/21 06:16:45;;;;;;;6.30;5.43;;;691.60;1817.60;;;;;;5067926;28;20810;-68
2021/06/21 06:19:10;;;;;;;10.48;5.68;;;691.70;1792.00;;;;;;5085787;28;20103;-67
2021/06/21 06:21:36;;;;;;;8.18;5.40;;;691.70;1792.00;;;;;;5084543;28;20426;-68
2021/06/21 06:24:02;;;;;;;9.68;5.57;;;691.90;1817.60;;;;;;5085016;28;20033;-68
2021/06/21 06:26:28;;;;;;;9.65;5.68;;;692.00;1792.00;;;;;;5082958;28;20021;-65
2021/06/21 06:28:56;;;;;;;6.63;5.72;;;716.80;1843.20;;;;;;5084985;28;20532;-67
2021/06/21 06:31:22;;;;;;;9.60;5.80;;;717.00;1817.60;;;;;;5082643;28;20035;-68
2021/06/21 06:33:48;;;;;;;6.82;5.43;;;717.10;1817.60;;;;;;5077944;28;20377;-66
2021/06/21 06:36:14;;;;;;;8.10;4.95;;;717.20;1817.60;;;;;;5083506;28;20024;-67
2021/06/21 06:38:40;;;;;;;7.53;5.45;;;717.40;1766.40;;;;;;5066071;28;20025;-69
2021/06/21 06:41:06;;;;;;;7.28;5.30;;;717.10;1740.80;;;;;;5074858;28;20476;-70
2021/06/21 06:43:32;;;;;;;8.32;5.32;;;717.60;1715.20;;;;;;5075335;28;20461;-70
2021/06/21 06:45:58;;;;;;;6.78;5.32;;;717.70;1715.20;;;;;;5083519;28;20108;-69
2021/06/21 06:48:23;;;;;;;7.20;5.32;;;742.50;1715.20;;;;;;5084749;28;20024;-69
2021/06/21 06:50:49;;;;;;;9.70;5.78;;;742.60;1715.20;;;;;;5084244;28;20067;-68
2021/06/21 06:53:24;;;;;;;7.03;5.32;;;742.70;1715.20;;;;;;5085842;28;20052;-70
2021/06/21 06:58:34;;;;;;;7.95;5.50;;;742.80;1689.60;;;;;;5084773;28;20031;-67
2021/06/21 07:01:00;;;;;;;7.82;5.50;;;742.80;1689.60;;;;;;5083441;28;20024;-68
2021/06/21 07:03:25;;;;;;;10.40;5.80;;;742.70;1689.60;;;;;;5084870;28;20503;-69
2021/06/21 07:05:51;;;;;;;6.18;5.57;;;742.80;1715.20;;;;;;5084783;28;20381;-68
2021/06/21 07:08:17;;;;;;;9.38;5.63;;;742.90;1664.00;;;;;;5080508;28;20036;-68
2021/06/21 07:10:42;;;;;;;9.25;5.38;;;742.90;1664.00;;;;;;5074824;28;20047;-67
2021/06/21 07:13:08;;;;;;;7.45;5.45;;;742.90;1664.00;;;;;;5083094;28;20020;-68
2021/06/21 07:15:34;;;;;;;8.13;5.30;;;743.10;1664.00;;;;;;5083814;28;20504;-67
2021/06/21 07:17:59;;;;;;;9.35;5.53;;;743.20;1664.00;;;;;;5084309;28;20115;-67
2021/06/21 07:20:25;;;;;;;7.90;5.28;;;743.20;1587.20;;;;;;5080212;28;20028;-67
2021/06/21 07:22:51;;;;;;;7.75;5.00;;;743.20;1561.60;;;;;;5074648;28;20082;-66
2021/06/21 07:25:17;;;;;;;8.75;4.90;;;743.00;1587.20;;;;;;5081508;28;20093;-67
2021/06/21 07:27:42;;;;;;;7.70;4.97;;;743.20;1561.60;;;;;;5084164;28;20105;-67
2021/06/21 07:30:09;;;;;;;5.35;4.80;;;743.00;1587.20;;;;;;5084473;28;20017;-67
2021/06/21 07:32:35;;;;;;;8.40;5.28;;;743.00;1587.20;;;;;;5082976;28;20275;-66
2021/06/21 07:35:00;;;;;;;8.82;5.43;;;742.90;1612.80;;;;;;5083899;28;20111;-66
2021/06/21 07:37:26;;;;;;;7.22;5.13;;;742.90;1638.40;;;;;;5083954;28;20477;-66
2021/06/21 07:39:52;;;;;;;11.75;5.00;;;742.90;1638.40;;;;;;5080739;28;20027;-66
2021/06/21 07:42:17;;;;;;;6.72;5.45;;;742.90;1638.40;;;;;;5082540;28;20013;-65
2021/06/21 07:44:43;;;;;;;6.20;4.90;;;743.00;1638.40;;;;;;5082365;28;20040;-65
2021/06/21 07:47:09;;;;;;;8.10;5.10;;;742.90;1612.80;;;;;;5083848;28;20440;-69
2021/06/21 07:49:35;;;;;;;7.53;5.35;;;743.00;1612.80;;;;;;5083358;28;20073;-66
2021/06/21 07:52:01;;;;;;;7.40;5.00;;;743.10;1638.40;;;;;;5082520;28;20052;-66
2021/06/21 07:54:26;;;;;;;9.35;6.00;;;768.00;1638.40;;;;;;5081967;28;20374;-65
2021/06/21 07:56:52;;;;;;;6.28;4.65;;;768.10;1587.20;;;;;;5084654;28;20028;-67
2021/06/21 07:59:18;;;;;;;5.82;4.57;;;768.20;1587.20;;;;;;5081052;28;20412;-68
2021/06/21 08:01:43;;;;;;;7.75;4.53;;;768.40;1612.80;;;;;;5083861;28;20032;-68
2021/06/21 08:04:09;;;;;;;7.68;4.95;;;768.60;1536.00;;;;;;5084316;28;20359;-68
2021/06/21 08:06:37;;;;;;;7.28;5.03;;;768.90;1536.00;;;;;;5082529;28;20062;-67
2021/06/21 08:09:03;;;;;;;11.73;4.90;;;793.90;1536.00;;;;;;5076241;28;20028;-65
2021/06/21 08:11:28;;;;;;;8.52;4.30;;;794.00;1510.40;;;;;;5066772;28;20842;-65
2021/06/21 08:13:57;;;;;;;9.13;5.00;;;794.30;1484.80;;;;;;5079847;28;20020;-67
2021/06/21 08:16:23;;;;;;;6.90;4.32;;;794.50;1459.20;;;;;;5093585;28;20020;-65
2021/06/21 08:18:49;;;;;;;6.40;4.40;;;819.20;1459.20;;;;;;5089964;28;20024;-67
2021/06/21 08:21:14;;;;;;;8.80;4.50;;;819.40;1433.60;;;;;;5085081;28;20081;-65
2021/06/21 08:23:40;;;;;;;5.80;4.70;;;819.50;1433.60;;;;;;5081244;28;20073;-65
2021/06/21 08:26:06;;;;;;;7.50;4.38;;;819.50;1408.00;;;;;;5082414;28;20027;-66
2021/06/21 08:28:32;;;;;;;8.45;4.50;;;819.60;1382.40;;;;;;5082555;28;20016;-65
2021/06/21 08:30:57;;;;;;;7.03;4.50;;;819.70;1408.00;;;;;;5081214;28;20029;-63
2021/06/21 08:33:23;;;;;;;9.63;4.80;;;819.70;1382.40;;;;;;5088476;28;20047;-65
2021/06/21 08:35:49;;;;;;;5.40;4.63;;;819.90;1408.00;;;;;;5093441;28;20032;-66
2021/06/21 08:38:15;;;;;;;8.93;4.60;;;819.90;1382.40;;;;;;5075086;28;20029;-67
2021/06/21 08:40:41;;;;;;;8.43;4.40;;;819.80;1408.00;;;;;;5093560;28;20381;-67
2021/06/21 08:43:08;;;;;;;7.07;4.53;;;820.00;1356.80;;;;;;5093435;28;20032;-67
2021/06/21 08:45:34;;;;;;;7.45;4.72;;;844.80;1356.80;;;;;;5093314;28;20508;-66
2021/06/21 08:48:01;;;;;;;6.70;3.83;;;845.00;1356.80;;;;;;5093387;28;20021;-61
2021/06/21 08:50:27;;;;;;;6.85;4.10;;;845.10;1331.20;;;;;;5093598;28;20366;-69
2021/06/21 08:52:53;;;;;;;8.57;4.47;;;845.10;1305.60;;;;;;5093575;28;20023;-67
2021/06/21 08:55:19;;;;;;;7.25;4.40;;;845.30;1305.60;;;;;;5093570;28;20036;-68
2021/06/21 08:57:46;;;;;;;7.35;4.28;;;845.50;1305.60;;;;;;5093553;28;20029;-67
2021/06/21 09:00:14;;;;;;;6.20;4.38;;;845.60;1280.00;;;;;;5093673;28;20385;-66
2021/06/21 09:02:40;;;;;;;4.60;3.88;;;845.50;1305.60;;;;;;5092203;28;20020;-69
2021/06/21 09:05:08;;;;;;;5.60;4.05;;;845.60;1280.00;;;;;;5093239;28;20031;-64
2021/06/21 09:07:34;;;;;;;4.90;3.72;;;845.70;1228.80;;;;;;5093349;28;20025;-66
2021/06/21 09:10:08;;;;;;;7.20;4.25;;;845.50;1254.40;;;;;;5073902;28;20056;-64
2021/06/21 09:12:34;;;;;;;5.30;3.88;;;845.60;1228.80;;;;;;5072795;28;20047;-66
2021/06/21 09:15:07;;;;;;;7.38;4.53;;;870.40;1228.80;;;;;;5077300;28;20024;-67
2021/06/21 09:17:36;;;;;;;8.25;4.47;;;870.40;1228.80;;;;;;5092823;28;20028;-63
2021/06/21 09:20:09;;;;;;;12.07;4.40;;;870.60;1228.80;;;;;;5092725;28;20452;-64
2021/06/21 09:22:50;;;;;;;9.32;4.20;;;870.60;1228.80;;;;;;5094714;28;20106;-66
2021/06/21 09:25:15;;;;;;;7.05;4.00;;;870.80;1228.80;;;;;;5095258;28;20032;-64
2021/06/21 09:27:52;;;;;;;7.68;4.43;;;870.80;1203.20;;;;;;5089742;28;20055;-64
2021/06/21 09:30:18;;;;;;;6.07;4.13;;;871.00;1152.00;;;;;;5094668;28;20427;-64
2021/06/21 09:32:50;;;;;;;7.40;3.92;;;871.00;1177.60;;;;;;5094837;28;20017;-66
2021/06/21 09:35:31;;;;;;;4.40;3.80;;;871.10;1177.60;;;;;;5094868;28;20520;-65
2021/06/21 09:37:59;;;;;;;7.90;4.35;;;871.20;1152.00;;;;;;5093147;28;20089;-67
2021/06/21 09:40:36;;;;;;;8.95;4.00;;;871.30;1152.00;;;;;;5085926;28;20021;-65
2021/06/21 09:43:20;;;;;;;6.20;3.83;;;896.10;1126.40;;;;;;5084346;28;20032;-65
2021/06/21 09:46:12;;;;;;;4.43;3.90;;;896.40;1100.80;;;;;;5083686;28;20040;-64
2021/06/21 09:48:45;;;;;;;5.47;4.00;;;896.80;1075.20;;;;;;5084264;28;20052;-63
2021/06/21 09:51:28;;;;;;;5.85;3.90;;;896.80;1075.20;;;;;;5065687;28;20089;-63
2021/06/21 09:54:00;;;;;;;5.70;3.70;;;896.90;1049.60;;;;;;5085497;28;20032;-59
2021/06/21 09:56:43;;;;;;;5.70;3.80;;;896.90;1024.00;;;;;;5084783;28;20025;-64
2021/06/21 09:59:21;;;;;;;6.07;3.87;;;921.70;1024.00;;;;;;5089178;28;20496;-63
2021/06/21 10:02:14;;;;;;;4.88;4.05;;;896.80;998.40;;;;;;5084980;28;20087;-64
2021/06/21 10:04:42;;;;;;;6.20;3.75;;;921.60;1024.00;;;;;;5083510;28;20082;-64
2021/06/21 10:07:28;;;;;;;7.78;4.20;;;896.90;998.40;;;;;;5084208;28;20054;-65
2021/06/21 10:10:05;;;;;;;4.95;3.70;;;921.80;1024.00;;;;;;5083166;28;20023;-64
2021/06/21 10:12:31;;;;;;;4.70;3.63;;;922.00;947.20;;;;;;5085224;28;20016;-63
2021/06/21 10:14:57;;;;;;;5.63;3.70;;;922.10;972.80;;;;;;5083247;28;20371;-63
2021/06/21 10:17:23;;;;;;;4.45;3.45;;;922.10;921.60;;;;;;5087162;28;20025;-64
2021/06/21 10:19:49;;;;;;;6.25;3.78;;;922.10;947.20;;;;;;5077996;28;20024;-63
2021/06/21 10:22:19;;;;;;;5.22;3.70;;;922.10;947.20;;;;;;5093774;28;20024;-64
2021/06/21 10:24:45;;;;;;;6.72;3.60;;;921.90;947.20;;;;;;5095338;28;20382;-64
2021/06/21 10:27:13;;;;;;;8.07;3.92;;;922.20;947.20;;;;;;5095744;28;20088;-63
2021/06/21 10:29:38;;;;;;;4.78;3.67;;;922.30;947.20;;;;;;5089207;28;20038;-63
2021/06/21 10:32:08;;;;;;;5.00;3.80;;;921.90;947.20;;;;;;5080650;28;20013;-63
2021/06/21 10:34:34;;;;;;;8.85;4.03;;;921.90;921.60;;;;;;5081749;28;20031;-62
2021/06/21 10:37:01;;;;;;;7.40;4.28;;;922.00;947.20;;;;;;5084439;28;20020;-63
2021/06/21 10:39:29;;;;;;;5.22;4.00;;;921.90;947.20;;;;;;5082312;28;20013;-63
2021/06/21 10:42:07;;;;;;;6.53;3.90;;;921.80;947.20;;;;;;5075005;28;20095;-63
2021/06/21 10:44:36;;;;;;;6.90;4.03;;;922.10;972.80;;;;;;5074414;28;20056;-63
2021/06/21 10:47:26;;;;;;;6.45;3.90;;;922.40;972.80;;;;;;5075155;28;20043;-63
2021/06/21 10:50:10;;;;;;;5.65;3.80;;;922.40;947.20;;;;;;5074720;28;20033;-62
2021/06/21 10:53:01;;;;;;;7.35;3.63;;;922.40;896.00;;;;;;5074192;28;20025;-62
2021/06/21 10:55:32;;;;;;;7.28;3.60;;;922.40;896.00;;;;;;5074581;28;20064;-63
2021/06/21 10:57:59;;;;;;;6.22;3.63;;;922.30;896.00;;;;;;5079083;28;20348;-63
2021/06/21 11:00:42;;;;;;;6.25;4.07;;;922.40;896.00;;;;;;5064343;28;20028;-62
2021/06/21 11:03:23;;;;;;;6.47;3.70;;;922.50;896.00;;;;;;5082267;28;20021;-63
2021/06/21 11:05:50;;;;;;;6.13;3.75;;;922.40;896.00;;;;;;5084191;28;20378;-63
2021/06/21 11:08:24;;;;;;;5.32;3.90;;;922.40;921.60;;;;;;5065655;28;20546;-63
2021/06/21 11:10:56;;;;;;;6.10;4.20;;;922.40;896.00;;;;;;5082138;28;20600;-64
2021/06/21 11:13:34;;;;;;;5.47;3.90;;;922.40;896.00;;;;;;5082375;28;20111;-63
2021/06/21 11:16:19;;;;;;;6.68;4.20;;;922.20;870.40;;;;;;5083728;28;20071;-62
2021/06/21 11:18:49;;;;;;;4.82;4.15;;;922.10;896.00;;;;;;5076276;28;20032;-63
2021/06/21 11:21:17;;;;;;;6.13;4.32;;;922.00;921.60;;;;;;5074116;28;20082;-64
2021/06/21 11:23:45;;;;;;;8.60;4.45;;;921.70;921.60;;;;;;5073737;28;20108;-64
2021/06/21 11:26:11;;;;;;;6.13;4.60;;;921.70;921.60;;;;;;5074180;28;20107;-62
2021/06/21 11:28:38;;;;;;;5.10;4.35;;;921.70;947.20;;;;;;5073856;28;20115;-63
2021/06/21 11:31:20;;;;;;;6.30;4.57;;;921.90;921.60;;;;;;5074262;28;20105;-64
2021/06/21 11:33:55;;;;;;;7.18;4.40;;;921.90;921.60;;;;;;5074044;28;20394;-62
2021/06/21 11:36:48;;;;;;;6.03;4.22;;;922.10;921.60;;;;;;5073774;28;20032;-63
2021/06/21 11:39:19;;;;;;;5.97;4.40;;;922.10;921.60;;;;;;4973493;28;20034;-64
2021/06/21 11:42:06;;;;;;;5.72;4.30;;;922.00;947.20;;;;;;4973314;28;20351;-65
2021/06/21 11:44:39;;;;;;;6.03;4.65;;;922.30;921.60;;;;;;4972563;28;20050;-64
2021/06/21 11:47:30;;;;;;;9.25;4.43;;;947.20;921.60;;;;;;4973441;28;20058;-64
2021/06/21 11:50:07;;;;;;;6.05;4.57;;;922.50;896.00;;;;;;4973169;28;20035;-62
2021/06/21 11:52:33;;;;;;;5.60;4.47;;;922.50;921.60;;;;;;4973185;28;20500;-63
2021/06/21 11:55:18;;;;;;;7.63;4.57;;;947.20;921.60;;;;;;4972811;28;20042;-60
2021/06/21 11:57:48;;;;;;;5.82;4.63;;;947.20;921.60;;;;;;4977939;28;20027;-62
2021/06/21 12:00:16;;;;;;;6.88;4.13;;;947.20;921.60;;;;;;4980415;28;20037;-62
2021/06/21 12:02:42;;;;;;;6.93;4.88;;;947.30;896.00;;;;;;4982142;28;20100;-61
2021/06/21 12:05:10;;;;;;;7.43;4.28;;;947.50;896.00;;;;;;4981373;28;20034;-60
2021/06/21 12:07:40;;;;;;;6.55;4.50;;;947.50;921.60;;;;;;4982971;28;20109;-59
2021/06/21 12:10:18;;;;;;;5.03;4.30;;;947.40;921.60;;;;;;4992246;28;20042;-64
2021/06/21 12:12:45;;;;;;;7.35;4.63;;;947.50;921.60;;;;;;4992374;28;20023;-59
2021/06/21 12:15:14;;;;;;;5.10;4.55;;;947.70;921.60;;;;;;5002160;28;20757;-61
2021/06/21 12:17:41;;;;;;;5.43;4.50;;;947.70;896.00;;;;;;5093871;28;20020;-61
2021/06/21 12:20:18;;;;;;;5.85;4.70;;;947.80;896.00;;;;;;5093899;28;20020;-59
2021/06/21 12:23:08;;;;;;;8.00;4.75;;;947.80;896.00;;;;;;5093654;28;20112;-60
2021/06/21 12:25:42;;;;;;;5.72;5.10;;;947.60;921.60;;;;;;5093368;28;20066;-60
2021/06/21 12:28:18;;;;;;;8.68;5.28;;;947.70;921.60;;;;;;5093763;28;20084;-64